sensor_id;sensor_type;location;lat;lon;timestamp;pressure;altitude;pressure_sealevel;temperature;humidity
19447;BME280;9862;49.462;11.054;2023-01-28T00:00:10;98649.97;;;3.20;100.00
19447;BME280;9862;49.462;11.054;2023-01-28T00:02:38;98650.47;;;3.23;100.00
19447;BME280;9862;49.462;11.054;2023-01-28T00:05:06;98639.97;;;3.23;100.00
19447;BME280;9862;49.462;11.054;2023-01-28T00:07:32;98638.50;;;3.38;100.00
19447;BME280;9862;49.462;11.054;2023-01-28T00:09:59;98644.03;;;3.35;100.00
19447;BME280;9862;49.462;11.054;2023-01-28T00:12:26;98647.34;;;3.37;100.00
19447;BME280;9862;49.462;11.054;2023-01-28T00:14:53;98636.09;;;3.45;100.00
19447;BME280;9862;49.462;11.054;2023-01-28T00:17:20;98636.09;;;3.63;100.00
19447;BME280;9862;49.462;11.054;2023-01-28T00:19:48;98628.69;;;3.58;100.00
19447;BME280;9862;49.462;11.054;2023-01-28T00:22:15;98642.94;;;3.56;100.00
19447;BME280;9862;49.462;11.054;2023-01-28T00:24:42;98638.38;;;3.58;100.00
19447;BME280;9862;49.462;11.054;2023-01-28T00:27:09;98634.47;;;3.62;100.00
19447;BME280;9862;49.462;11.054;2023-01-28T00:29:35;98633.25;;;3.74;100.00
19447;BME280;9862;49.462;11.054;2023-01-28T00:32:03;98631.84;;;3.80;100.00
19447;BME280;9862;49.462;11.054;2023-01-28T00:34:29;98626.81;;;3.86;100.00
19447;BME280;9862;49.462;11.054;2023-01-28T00:36:57;98631.84;;;3.97;100.00
19447;BME280;9862;49.462;11.054;2023-01-28T00:39:24;98626.19;;;3.92;100.00
19447;BME280;9862;49.462;11.054;2023-01-28T00:41:52;98638.91;;;3.97;100.00
19447;BME280;9862;49.462;11.054;2023-01-28T00:44:19;98642.47;;;4.14;100.00
19447;BME280;9862;49.462;11.054;2023-01-28T00:46:46;98624.03;;;4.14;100.00
19447;BME280;9862;49.462;11.054;2023-01-28T00:49:13;98627.66;;;4.13;100.00
19447;BME280;9862;49.462;11.054;2023-01-28T00:51:40;98621.13;;;4.17;100.00
19447;BME280;9862;49.462;11.054;2023-01-28T00:54:10;98621.41;;;4.14;100.00
19447;BME280;9862;49.462;11.054;2023-01-28T00:56:37;98628.53;;;4.21;100.00
19447;BME280;9862;49.462;11.054;2023-01-28T00:59:04;98632.00;;;4.22;100.00
19447;BME280;9862;49.462;11.054;2023-01-28T01:01:30;98633.50;;;4.24;100.00
19447;BME280;9862;49.462;11.054;2023-01-28T01:03:57;98643.69;;;4.19;100.00
19447;BME280;9862;49.462;11.054;2023-01-28T01:06:27;98633.00;;;4.21;100.00
19447;BME280;9862;49.462;11.054;2023-01-28T01:08:54;98635.94;;;4.18;100.00
19447;BME280;9862;49.462;11.054;2023-01-28T01:11:22;98640.38;;;4.17;100.00
19447;BME280;9862;49.462;11.054;2023-01-28T01:13:51;98643.19;;;4.16;100.00
19447;BME280;9862;49.462;11.054;2023-01-28T01:16:19;98643.19;;;4.16;100.00
19447;BME280;9862;49.462;11.054;2023-01-28T01:18:46;98643.38;;;4.22;100.00
19447;BME280;9862;49.462;11.054;2023-01-28T01:21:15;98647.81;;;4.22;100.00
19447;BME280;9862;49.462;11.054;2023-01-28T01:23:42;98640.72;;;4.22;100.00
19447;BME280;9862;49.462;11.054;2023-01-28T01:26:09;98654.06;;;4.21;100.00
19447;BME280;9862;49.462;11.054;2023-01-28T01:28:37;98646.44;;;4.36;100.00
19447;BME280;9862;49.462;11.054;2023-01-28T01:31:05;98640.47;;;4.34;100.00
19447;BME280;9862;49.462;11.054;2023-01-28T01:33:32;98647.81;;;4.22;100.00
19447;BME280;9862;49.462;11.054;2023-01-28T01:35:59;98646.31;;;4.19;100.00
19447;BME280;9862;49.462;11.054;2023-01-28T01:38:26;98657.22;;;4.24;100.00
19447;BME280;9862;49.462;11.054;2023-01-28T01:40:55;98651.28;;;4.22;100.00
19447;BME280;9862;49.462;11.054;2023-01-28T01:43:23;98659.66;;;4.18;100.00
19447;BME280;9862;49.462;11.054;2023-01-28T01:45:54;98663.84;;;4.11;100.00
19447;BME280;9862;49.462;11.054;2023-01-28T01:48:25;98663.41;;;4.15;100.00
19447;BME280;9862;49.462;11.054;2023-01-28T01:50:57;98662.34;;;4.26;100.00
19447;BME280;9862;49.462;11.054;2023-01-28T01:53:25;98663.34;;;4.51;100.00
19447;BME280;9862;49.462;11.054;2023-01-28T01:55:57;98666.00;;;4.33;100.00
19447;BME280;9862;49.462;11.054;2023-01-28T01:58:27;98673.00;;;4.24;100.00
19447;BME280;9862;49.462;11.054;2023-01-28T02:00:56;98661.91;;;4.13;100.00
19447;BME280;9862;49.462;11.054;2023-01-28T02:03:27;98664.66;;;4.29;100.00
19447;BME280;9862;49.462;11.054;2023-01-28T02:05:56;98657.75;;;4.28;100.00
19447;BME280;9862;49.462;11.054;2023-01-28T02:08:22;98667.22;;;4.21;100.00
19447;BME280;9862;49.462;11.054;2023-01-28T02:10:52;98659.66;;;4.18;100.00
19447;BME280;9862;49.462;11.054;2023-01-28T02:13:23;98664.97;;;4.26;100.00
19447;BME280;9862;49.462;11.054;2023-01-28T02:15:50;98669.50;;;4.16;100.00
19447;BME280;9862;49.462;11.054;2023-01-28T02:18:18;98670.78;;;4.12;100.00
19447;BME280;9862;49.462;11.054;2023-01-28T02:21:01;98675.28;;;4.19;100.00
19447;BME280;9862;49.462;11.054;2023-01-28T02:23:46;98672.16;;;4.16;100.00
19447;BME280;9862;49.462;11.054;2023-01-28T02:26:46;98669.72;;;4.22;100.00
19447;BME280;9862;49.462;11.054;2023-01-28T02:29:22;98665.13;;;4.24;100.00
19447;BME280;9862;49.462;11.054;2023-01-28T02:31:53;98671.59;;;4.30;100.00
19447;BME280;9862;49.462;11.054;2023-01-28T02:34:30;98667.66;;;4.34;100.00
19447;BME280;9862;49.462;11.054;2023-01-28T02:37:04;98664.94;;;4.44;100.00
19447;BME280;9862;49.462;11.054;2023-01-28T02:39:39;98664.78;;;4.45;100.00
19447;BME280;9862;49.462;11.054;2023-01-28T02:42:10;98659.81;;;4.42;100.00
19447;BME280;9862;49.462;11.054;2023-01-28T02:44:40;98665.09;;;4.42;100.00
19447;BME280;9862;49.462;11.054;2023-01-28T02:47:09;98664.47;;;4.48;100.00
19447;BME280;9862;49.462;11.054;2023-01-28T02:49:54;98666.25;;;4.66;100.00
19447;BME280;9862;49.462;11.054;2023-01-28T02:52:39;98669.00;;;4.56;100.00
19447;BME280;9862;49.462;11.054;2023-01-28T02:55:29;98672.38;;;4.48;100.00
19447;BME280;9862;49.462;11.054;2023-01-28T02:58:05;98673.06;;;4.50;100.00
19447;BME280;9862;49.462;11.054;2023-01-28T03:00:43;98680.44;;;4.73;100.00
19447;BME280;9862;49.462;11.054;2023-01-28T03:03:15;98672.84;;;4.70;100.00
19447;BME280;9862;49.462;11.054;2023-01-28T03:05:46;98684.63;;;4.57;100.00
19447;BME280;9862;49.462;11.054;2023-01-28T03:08:31;98674.66;;;4.43;100.00
19447;BME280;9862;49.462;11.054;2023-01-28T03:11:17;98683.19;;;4.37;100.00
19447;BME280;9862;49.462;11.054;2023-01-28T03:14:02;98684.75;;;4.30;100.00
19447;BME280;9862;49.462;11.054;2023-01-28T03:16:49;98692.75;;;4.20;100.00
19447;BME280;9862;49.462;11.054;2023-01-28T03:19:35;98695.84;;;4.16;100.00
19447;BME280;9862;49.462;11.054;2023-01-28T03:22:21;98688.91;;;4.15;100.00
19447;BME280;9862;49.462;11.054;2023-01-28T03:25:07;98684.56;;;4.06;100.00
19447;BME280;9862;49.462;11.054;2023-01-28T03:27:53;98691.53;;;4.15;100.00
19447;BME280;9862;49.462;11.054;2023-01-28T03:30:43;98695.38;;;4.20;100.00
19447;BME280;9862;49.462;11.054;2023-01-28T03:33:31;98696.22;;;4.21;100.00
19447;BME280;9862;49.462;11.054;2023-01-28T03:36:17;98702.16;;;4.23;100.00
19447;BME280;9862;49.462;11.054;2023-01-28T03:39:02;98699.34;;;4.24;100.00
19447;BME280;9862;49.462;11.054;2023-01-28T03:41:28;98703.44;;;4.19;100.00
19447;BME280;9862;49.462;11.054;2023-01-28T03:43:55;98707.41;;;4.23;100.00
19447;BME280;9862;49.462;11.054;2023-01-28T03:46:21;98704.63;;;4.24;100.00
19447;BME280;9862;49.462;11.054;2023-01-28T03:48:49;98704.63;;;4.24;100.00
19447;BME280;9862;49.462;11.054;2023-01-28T03:51:16;98708.78;;;4.27;100.00
19447;BME280;9862;49.462;11.054;2023-01-28T03:53:43;98706.81;;;4.29;100.00
19447;BME280;9862;49.462;11.054;2023-01-28T03:56:09;98722.63;;;4.29;100.00
19447;BME280;9862;49.462;11.054;2023-01-28T03:58:42;98718.09;;;4.39;100.00
19447;BME280;9862;49.462;11.054;2023-01-28T04:01:18;98709.81;;;4.34;100.00
19447;BME280;9862;49.462;11.054;2023-01-28T04:03:45;98713.75;;;4.30;100.00
19447;BME280;9862;49.462;11.054;2023-01-28T04:06:13;98716.63;;;4.19;100.00
19447;BME280;9862;49.462;11.054;2023-01-28T04:08:40;98720.31;;;4.08;100.00
19447;BME280;9862;49.462;11.054;2023-01-28T04:11:17;98723.91;;;4.07;100.00
19447;BME280;9862;49.462;11.054;2023-01-28T04:13:46;98719.25;;;4.01;100.00
19447;BME280;9862;49.462;11.054;2023-01-28T04:16:14;98723.09;;;4.07;100.00
19447;BME280;9862;49.462;11.054;2023-01-28T04:18:41;98727.91;;;4.11;100.00
19447;BME280;9862;49.462;11.054;2023-01-28T04:21:08;98721.13;;;4.09;100.00
19447;BME280;9862;49.462;11.054;2023-01-28T04:23:36;98728.22;;;4.26;100.00
19447;BME280;9862;49.462;11.054;2023-01-28T04:26:03;98736.19;;;4.16;100.00
19447;BME280;9862;49.462;11.054;2023-01-28T04:28:30;98738.91;;;4.07;100.00
19447;BME280;9862;49.462;11.054;2023-01-28T04:30:56;98737.09;;;4.07;100.00
19447;BME280;9862;49.462;11.054;2023-01-28T04:33:23;98731.97;;;4.06;100.00
19447;BME280;9862;49.462;11.054;2023-01-28T04:35:49;98740.84;;;4.05;100.00
19447;BME280;9862;49.462;11.054;2023-01-28T04:38:16;98745.50;;;4.11;100.00
19447;BME280;9862;49.462;11.054;2023-01-28T04:40:44;98749.06;;;4.19;100.00
19447;BME280;9862;49.462;11.054;2023-01-28T04:43:14;98740.41;;;4.27;100.00
19447;BME280;9862;49.462;11.054;2023-01-28T04:45:40;98736.16;;;4.34;100.00
19447;BME280;9862;49.462;11.054;2023-01-28T04:48:07;98744.69;;;4.28;100.00
19447;BME280;9862;49.462;11.054;2023-01-28T04:50:33;98735.38;;;4.16;100.00
19447;BME280;9862;49.462;11.054;2023-01-28T04:53:00;98738.44;;;4.29;100.00
19447;BME280;9862;49.462;11.054;2023-01-28T04:55:27;98750.47;;;4.14;100.00
19447;BME280;9862;49.462;11.054;2023-01-28T04:57:55;98746.84;;;4.15;100.00
19447;BME280;9862;49.462;11.054;2023-01-28T05:00:22;98749.44;;;4.07;100.00
19447;BME280;9862;49.462;11.054;2023-01-28T05:02:48;98749.44;;;4.07;100.00
19447;BME280;9862;49.462;11.054;2023-01-28T05:05:15;98742.81;;;4.20;100.00
19447;BME280;9862;49.462;11.054;2023-01-28T05:07:41;98739.19;;;4.03;100.00
19447;BME280;9862;49.462;11.054;2023-01-28T05:10:09;98749.78;;;4.12;100.00
19447;BME280;9862;49.462;11.054;2023-01-28T05:12:35;98745.19;;;4.14;100.00
19447;BME280;9862;49.462;11.054;2023-01-28T05:15:05;98743.28;;;4.16;100.00
19447;BME280;9862;49.462;11.054;2023-01-28T05:17:31;98744.53;;;4.12;100.00
19447;BME280;9862;49.462;11.054;2023-01-28T05:19:58;98746.84;;;4.15;100.00
19447;BME280;9862;49.462;11.054;2023-01-28T05:22:25;98740.84;;;4.22;100.00
19447;BME280;9862;49.462;11.054;2023-01-28T05:24:51;98750.09;;;4.09;100.00
19447;BME280;9862;49.462;11.054;2023-01-28T05:27:18;98737.09;;;4.07;100.00
19447;BME280;9862;49.462;11.054;2023-01-28T05:29:44;98750.41;;;4.06;100.00
19447;BME280;9862;49.462;11.054;2023-01-28T05:32:12;98747.47;;;4.09;100.00
19447;BME280;9862;49.462;11.054;2023-01-28T05:34:39;98751.66;;;4.01;100.00
19447;BME280;9862;49.462;11.054;2023-01-28T05:37:05;98753.88;;;4.06;100.00
19447;BME280;9862;49.462;11.054;2023-01-28T05:39:32;98750.25;;;4.07;100.00
19447;BME280;9862;49.462;11.054;2023-01-28T05:41:58;98753.03;;;4.06;100.00
19447;BME280;9862;49.462;11.054;2023-01-28T05:44:25;98750.25;;;4.07;100.00
19447;BME280;9862;49.462;11.054;2023-01-28T05:46:51;98752.44;;;4.12;100.00
19447;BME280;9862;49.462;11.054;2023-01-28T05:49:19;98752.66;;;4.18;100.00
19447;BME280;9862;49.462;11.054;2023-01-28T05:51:46;98749.88;;;4.38;100.00
19447;BME280;9862;49.462;11.054;2023-01-28T05:54:14;98750.13;;;4.26;100.00
19447;BME280;9862;49.462;11.054;2023-01-28T05:56:40;98754.75;;;4.15;100.00
19447;BME280;9862;49.462;11.054;2023-01-28T05:59:10;98755.28;;;4.00;100.00
19447;BME280;9862;49.462;11.054;2023-01-28T06:01:37;98766.19;;;3.88;100.00
19447;BME280;9862;49.462;11.054;2023-01-28T06:04:04;98755.88;;;3.94;100.00
19447;BME280;9862;49.462;11.054;2023-01-28T06:06:32;98760.22;;;3.86;100.00
19447;BME280;9862;49.462;11.054;2023-01-28T06:08:58;98759.06;;;3.70;100.00
19447;BME280;9862;49.462;11.054;2023-01-28T06:11:25;98769.06;;;3.67;100.00
19447;BME280;9862;49.462;11.054;2023-01-28T06:13:51;98778.75;;;3.66;100.00
19447;BME280;9862;49.462;11.054;2023-01-28T06:16:18;98770.53;;;3.79;100.00
19447;BME280;9862;49.462;11.054;2023-01-28T06:18:44;98772.34;;;3.79;100.00
19447;BME280;9862;49.462;11.054;2023-01-28T06:21:11;98771.25;;;3.71;100.00
19447;BME280;9862;49.462;11.054;2023-01-28T06:23:39;98777.34;;;3.72;100.00
19447;BME280;9862;49.462;11.054;2023-01-28T06:26:05;98775.41;;;3.74;100.00
19447;BME280;9862;49.462;11.054;2023-01-28T06:28:32;98778.03;;;3.74;100.00
19447;BME280;9862;49.462;11.054;2023-01-28T06:30:58;98786.28;;;3.61;100.00
19447;BME280;9862;49.462;11.054;2023-01-28T06:33:25;98790.59;;;3.53;100.00
19447;BME280;9862;49.462;11.054;2023-01-28T06:35:53;98794.41;;;3.40;100.00
19447;BME280;9862;49.462;11.054;2023-01-28T06:38:19;98792.59;;;3.41;100.00
19447;BME280;9862;49.462;11.054;2023-01-28T06:40:51;98807.31;;;3.61;100.00
19447;BME280;9862;49.462;11.054;2023-01-28T06:43:17;98805.66;;;3.60;100.00
19447;BME280;9862;49.462;11.054;2023-01-28T06:45:44;98806.81;;;3.58;100.00
19447;BME280;9862;49.462;11.054;2023-01-28T06:48:10;98802.66;;;3.45;100.00
19447;BME280;9862;49.462;11.054;2023-01-28T06:50:37;98813.59;;;3.51;100.00
19447;BME280;9862;49.462;11.054;2023-01-28T06:53:03;98811.81;;;3.51;100.00
19447;BME280;9862;49.462;11.054;2023-01-28T06:55:30;98811.47;;;3.64;100.00
19447;BME280;9862;49.462;11.054;2023-01-28T06:57:58;98816.91;;;3.53;100.00
19447;BME280;9862;49.462;11.054;2023-01-28T07:00:25;98821.78;;;3.48;100.00
19447;BME280;9862;49.462;11.054;2023-01-28T07:02:54;98820.84;;;3.39;100.00
19447;BME280;9862;49.462;11.054;2023-01-28T07:05:21;98828.16;;;3.45;100.00
19447;BME280;9862;49.462;11.054;2023-01-28T07:07:47;98819.00;;;3.49;100.00
19447;BME280;9862;49.462;11.054;2023-01-28T07:10:15;98824.81;;;3.53;100.00
19447;BME280;9862;49.462;11.054;2023-01-28T07:12:41;98827.59;;;3.51;100.00
19447;BME280;9862;49.462;11.054;2023-01-28T07:15:10;98824.84;;;3.43;100.00
19447;BME280;9862;49.462;11.054;2023-01-28T07:17:38;98831.34;;;3.49;100.00
19447;BME280;9862;49.462;11.054;2023-01-28T07:20:07;98836.59;;;3.49;100.00
19447;BME280;9862;49.462;11.054;2023-01-28T07:22:35;98831.88;;;3.52;100.00
19447;BME280;9862;49.462;11.054;2023-01-28T07:25:06;98840.91;;;3.50;100.00
19447;BME280;9862;49.462;11.054;2023-01-28T07:27:33;98844.19;;;3.52;100.00
19447;BME280;9862;49.462;11.054;2023-01-28T07:30:00;98845.31;;;3.49;100.00
19447;BME280;9862;49.462;11.054;2023-01-28T07:32:28;98841.38;;;3.63;100.00
19447;BME280;9862;49.462;11.054;2023-01-28T07:34:54;98846.66;;;3.63;100.00
19447;BME280;9862;49.462;11.054;2023-01-28T07:37:21;98841.53;;;3.61;100.00
19447;BME280;9862;49.462;11.054;2023-01-28T07:39:47;98842.84;;;3.48;100.00
19447;BME280;9862;49.462;11.054;2023-01-28T07:42:14;98842.72;;;3.39;100.00
19447;BME280;9862;49.462;11.054;2023-01-28T07:44:42;98851.19;;;3.33;100.00
19447;BME280;9862;49.462;11.054;2023-01-28T07:47:08;98850.06;;;3.36;100.00
19447;BME280;9862;49.462;11.054;2023-01-28T07:49:37;98852.00;;;3.34;100.00
19447;BME280;9862;49.462;11.054;2023-01-28T07:52:04;98857.44;;;3.23;100.00
19447;BME280;9862;49.462;11.054;2023-01-28T07:54:30;98854.50;;;3.26;100.00
19447;BME280;9862;49.462;11.054;2023-01-28T07:56:57;98855.88;;;3.39;100.00
19447;BME280;9862;49.462;11.054;2023-01-28T07:59:27;98847.84;;;3.41;100.00
19447;BME280;9862;49.462;11.054;2023-01-28T08:02:10;98855.28;;;3.45;100.00
19447;BME280;9862;49.462;11.054;2023-01-28T08:04:40;98858.91;;;3.44;100.00
19447;BME280;9862;49.462;11.054;2023-01-28T08:07:07;98858.78;;;3.36;100.00
19447;BME280;9862;49.462;11.054;2023-01-28T08:09:33;98868.06;;;3.40;100.00
19447;BME280;9862;49.462;11.054;2023-01-28T08:12:00;98855.28;;;3.45;100.00
19447;BME280;9862;49.462;11.054;2023-01-28T08:14:27;98858.34;;;3.51;100.00
19447;BME280;9862;49.462;11.054;2023-01-28T08:16:54;98863.00;;;3.57;100.00
19447;BME280;9862;49.462;11.054;2023-01-28T08:19:21;98860.81;;;3.52;100.00
19447;BME280;9862;49.462;11.054;2023-01-28T08:21:49;98878.13;;;3.55;100.00
19447;BME280;9862;49.462;11.054;2023-01-28T08:24:16;98879.09;;;3.54;100.00
19447;BME280;9862;49.462;11.054;2023-01-28T08:26:43;98882.13;;;3.59;100.00
19447;BME280;9862;49.462;11.054;2023-01-28T08:29:10;98871.63;;;3.59;100.00
19447;BME280;9862;49.462;11.054;2023-01-28T08:31:37;98874.13;;;3.51;100.00
19447;BME280;9862;49.462;11.054;2023-01-28T08:34:04;98876.88;;;3.59;100.00
19447;BME280;9862;49.462;11.054;2023-01-28T08:36:30;98867.53;;;3.74;100.00
19447;BME280;9862;49.462;11.054;2023-01-28T08:38:58;98875.38;;;3.84;100.00
19447;BME280;9862;49.462;11.054;2023-01-28T08:41:28;98863.22;;;3.73;100.00
19447;BME280;9862;49.462;11.054;2023-01-28T08:43:55;98866.84;;;3.72;100.00
19447;BME280;9862;49.462;11.054;2023-01-28T08:46:22;98868.63;;;3.81;100.00
19447;BME280;9862;49.462;11.054;2023-01-28T08:48:48;98875.84;;;3.79;100.00
19447;BME280;9862;49.462;11.054;2023-01-28T08:51:15;98880.19;;;3.98;100.00
19447;BME280;9862;49.462;11.054;2023-01-28T08:53:42;98879.34;;;3.97;100.00
19447;BME280;9862;49.462;11.054;2023-01-28T08:56:10;98871.63;;;4.14;100.00
19447;BME280;9862;49.462;11.054;2023-01-28T08:58:36;98873.38;;;4.23;100.00
19447;BME280;9862;49.462;11.054;2023-01-28T09:01:04;98883.03;;;4.32;100.00
19447;BME280;9862;49.462;11.054;2023-01-28T09:03:31;98888.81;;;4.18;100.00
19447;BME280;9862;49.462;11.054;2023-01-28T09:05:59;98886.88;;;4.20;100.00
19447;BME280;9862;49.462;11.054;2023-01-28T09:08:26;98883.81;;;4.15;100.00
19447;BME280;9862;49.462;11.054;2023-01-28T09:10:54;98878.84;;;4.12;100.00
19447;BME280;9862;49.462;11.054;2023-01-28T09:13:22;98878.81;;;4.21;100.00
19447;BME280;9862;49.462;11.054;2023-01-28T09:15:49;98875.63;;;4.45;100.00
19447;BME280;9862;49.462;11.054;2023-01-28T09:18:16;98876.22;;;4.39;100.00
19447;BME280;9862;49.462;11.054;2023-01-28T09:20:43;98883.59;;;4.36;100.00
19447;BME280;9862;49.462;11.054;2023-01-28T09:23:10;98882.19;;;4.59;100.00
19447;BME280;9862;49.462;11.054;2023-01-28T09:25:37;98886.22;;;4.53;100.00
19447;BME280;9862;49.462;11.054;2023-01-28T09:28:04;98888.03;;;4.35;100.00
19447;BME280;9862;49.462;11.054;2023-01-28T09:30:33;98893.38;;;4.25;100.00
19447;BME280;9862;49.462;11.054;2023-01-28T09:33:00;98899.69;;;4.05;100.00
19447;BME280;9862;49.462;11.054;2023-01-28T09:35:26;98904.97;;;3.95;100.00
19447;BME280;9862;49.462;11.054;2023-01-28T09:37:55;98900.56;;;3.96;100.00
19447;BME280;9862;49.462;11.054;2023-01-28T09:40:33;98905.53;;;3.99;100.00
19447;BME280;9862;49.462;11.054;2023-01-28T09:43:15;98905.34;;;4.10;100.00
19447;BME280;9862;49.462;11.054;2023-01-28T09:45:47;98913.78;;;4.14;100.00
19447;BME280;9862;49.462;11.054;2023-01-28T09:48:17;98912.91;;;4.23;100.00
19447;BME280;9862;49.462;11.054;2023-01-28T09:50:48;98914.50;;;4.34;100.00
19447;BME280;9862;49.462;11.054;2023-01-28T09:53:19;98915.84;;;4.20;100.00
19447;BME280;9862;49.462;11.054;2023-01-28T09:55:49;98922.38;;;4.16;100.00
19447;BME280;9862;49.462;11.054;2023-01-28T09:58:18;98918.16;;;4.23;100.00
19447;BME280;9862;49.462;11.054;2023-01-28T10:00:52;98919.88;;;4.42;100.00
19447;BME280;9862;49.462;11.054;2023-01-28T10:03:27;98917.75;;;4.55;100.00
19447;BME280;9862;49.462;11.054;2023-01-28T10:06:08;98910.94;;;4.52;100.00
19447;BME280;9862;49.462;11.054;2023-01-28T10:11:43;98910.56;;;4.47;100.00
19447;BME280;9862;49.462;11.054;2023-01-28T10:14:20;98900.72;;;6.32;100.00
19447;BME280;9862;49.462;11.054;2023-01-28T10:16:56;98896.03;;;7.66;100.00
19447;BME280;9862;49.462;11.054;2023-01-28T10:19:27;98892.75;;;8.59;100.00
19447;BME280;9862;49.462;11.054;2023-01-28T10:21:59;98906.03;;;8.51;100.00
19447;BME280;9862;49.462;11.054;2023-01-28T10:24:30;98892.72;;;7.72;100.00
19447;BME280;9862;49.462;11.054;2023-01-28T10:26:59;98898.72;;;7.09;100.00
19447;BME280;9862;49.462;11.054;2023-01-28T10:29:28;98901.75;;;6.56;100.00
19447;BME280;9862;49.462;11.054;2023-01-28T10:32:14;98898.56;;;6.28;100.00
19447;BME280;9862;49.462;11.054;2023-01-28T10:34:41;98897.41;;;5.96;100.00
19447;BME280;9862;49.462;11.054;2023-01-28T10:37:10;98892.50;;;5.75;100.00
19447;BME280;9862;49.462;11.054;2023-01-28T10:39:38;98888.03;;;5.76;100.00
19447;BME280;9862;49.462;11.054;2023-01-28T10:42:15;98901.19;;;5.42;100.00
19447;BME280;9862;49.462;11.054;2023-01-28T10:44:46;98894.22;;;5.33;100.00
19447;BME280;9862;49.462;11.054;2023-01-28T10:47:21;98892.72;;;5.12;100.00
19447;BME280;9862;49.462;11.054;2023-01-28T10:49:52;98893.56;;;4.95;100.00
19447;BME280;9862;49.462;11.054;2023-01-28T10:52:21;98900.41;;;5.06;100.00
19447;BME280;9862;49.462;11.054;2023-01-28T10:54:58;98895.97;;;4.71;100.00
19447;BME280;9862;49.462;11.054;2023-01-28T10:57:24;98896.72;;;4.45;100.00
19447;BME280;9862;49.462;11.054;2023-01-28T10:59:51;98903.56;;;4.56;100.00
19447;BME280;9862;49.462;11.054;2023-01-28T11:02:31;98904.28;;;4.30;100.00
19447;BME280;9862;49.462;11.054;2023-01-28T11:05:05;98909.97;;;3.98;100.00
19447;BME280;9862;49.462;11.054;2023-01-28T11:07:32;98919.91;;;4.05;100.00
19447;BME280;9862;49.462;11.054;2023-01-28T11:10:00;98909.78;;;4.10;100.00
19447;BME280;9862;49.462;11.054;2023-01-28T11:12:28;98914.72;;;4.22;100.00
19447;BME280;9862;49.462;11.054;2023-01-28T11:14:56;98904.53;;;4.73;100.00
19447;BME280;9862;49.462;11.054;2023-01-28T11:17:24;98908.84;;;4.92;100.00
19447;BME280;9862;49.462;11.054;2023-01-28T11:19:54;98903.13;;;4.96;100.00
19447;BME280;9862;49.462;11.054;2023-01-28T11:22:25;98909.50;;;5.11;100.00
19447;BME280;9862;49.462;11.054;2023-01-28T11:24:55;98906.59;;;4.97;100.00
19447;BME280;9862;49.462;11.054;2023-01-28T11:27:26;98906.69;;;4.87;100.00
19447;BME280;9862;49.462;11.054;2023-01-28T11:29:56;98912.25;;;4.84;100.00
19447;BME280;9862;49.462;11.054;2023-01-28T11:32:27;98908.41;;;4.96;100.00
19447;BME280;9862;49.462;11.054;2023-01-28T11:34:56;98915.03;;;4.82;100.00
19447;BME280;9862;49.462;11.054;2023-01-28T11:37:25;98910.88;;;4.80;100.00
19447;BME280;9862;49.462;11.054;2023-01-28T11:40:03;98919.31;;;4.66;100.00
19447;BME280;9862;49.462;11.054;2023-01-28T11:42:30;98910.66;;;4.55;100.00
19447;BME280;9862;49.462;11.054;2023-01-28T11:44:57;98918.63;;;4.46;100.00
19447;BME280;9862;49.462;11.054;2023-01-28T11:47:41;98913.69;;;4.33;100.00
19447;BME280;9862;49.462;11.054;2023-01-28T11:50:22;98909.19;;;4.43;100.00
19447;BME280;9862;49.462;11.054;2023-01-28T11:53:04;98904.16;;;4.50;100.00
19447;BME280;9862;49.462;11.054;2023-01-28T11:55:43;98907.25;;;4.63;100.00
19447;BME280;9862;49.462;11.054;2023-01-28T11:58:20;98911.56;;;4.82;100.00
19447;BME280;9862;49.462;11.054;2023-01-28T12:00:55;98912.69;;;4.97;100.00
19447;BME280;9862;49.462;11.054;2023-01-28T12:06:39;98905.53;;;4.89;100.00
19447;BME280;9862;49.462;11.054;2023-01-28T12:09:15;98905.94;;;4.77;100.00
19447;BME280;9862;49.462;11.054;2023-01-28T12:11:55;98902.16;;;4.34;100.00
19447;BME280;9862;49.462;11.054;2023-01-28T12:15:19;98909.69;;;4.01;100.00
19447;BME280;9862;49.462;11.054;2023-01-28T12:17:59;98914.25;;;3.62;100.00
19447;BME280;9862;49.462;11.054;2023-01-28T12:20:36;98917.22;;;3.40;100.00
19447;BME280;9862;49.462;11.054;2023-01-28T12:23:21;98917.66;;;3.16;100.00
19447;BME280;9862;49.462;11.054;2023-01-28T12:26:03;98926.22;;;3.18;100.00
19447;BME280;9862;49.462;11.054;2023-01-28T12:28:42;98913.66;;;3.12;100.00
19447;BME280;9862;49.462;11.054;2023-01-28T12:31:30;98926.13;;;3.00;100.00
19447;BME280;9862;49.462;11.054;2023-01-28T12:34:12;98927.34;;;2.86;100.00
19447;BME280;9862;49.462;11.054;2023-01-28T12:36:52;98916.00;;;2.86;100.00
19447;BME280;9862;49.462;11.054;2023-01-28T12:39:34;98910.88;;;3.04;100.00
19447;BME280;9862;49.462;11.054;2023-01-28T12:42:09;98916.69;;;3.17;100.00
19447;BME280;9862;49.462;11.054;2023-01-28T12:44:40;98918.78;;;3.13;100.00
19447;BME280;9862;49.462;11.054;2023-01-28T12:47:12;98911.28;;;3.28;100.00
19447;BME280;9862;49.462;11.054;2023-01-28T12:49:44;98916.66;;;3.36;100.00
19447;BME280;9862;49.462;11.054;2023-01-28T12:52:17;98915.00;;;3.26;100.00
19447;BME280;9862;49.462;11.054;2023-01-28T12:54:54;98908.34;;;3.41;100.00
19447;BME280;9862;49.462;11.054;2023-01-28T12:57:23;98904.72;;;3.52;100.00
19447;BME280;9862;49.462;11.054;2023-01-28T12:59:55;98895.97;;;3.61;100.00
19447;BME280;9862;49.462;11.054;2023-01-28T13:02:25;98895.69;;;3.64;100.00
19447;BME280;9862;49.462;11.054;2023-01-28T13:04:59;98888.72;;;3.72;100.00
19447;BME280;9862;49.462;11.054;2023-01-28T13:07:33;98895.34;;;3.86;100.00
19447;BME280;9862;49.462;11.054;2023-01-28T13:10:08;98891.97;;;3.94;100.00
19447;BME280;9862;49.462;11.054;2023-01-28T13:12:37;98895.88;;;3.90;100.00
19447;BME280;9862;49.462;11.054;2023-01-28T13:15:10;98902.84;;;3.81;100.00
19447;BME280;9862;49.462;11.054;2023-01-28T13:17:38;98903.63;;;3.91;100.00
19447;BME280;9862;49.462;11.054;2023-01-28T13:20:13;98897.41;;;4.20;100.00
19447;BME280;9862;49.462;11.054;2023-01-28T13:22:43;98894.88;;;4.28;100.00